Time;durP1;ratioP1;P1;durP2;ratioP2;P2;SDS_P1;SDS_P2;PMS_P1;PMS_P2;Temp;Humidity;BMP_temperature;BMP_pressure;BME280_temperature;BME280_humidity;BME280_pressure;Samples;Min_cycle;Max_cycle;Signal;HPM_P1;HPM_P2
2023/01/29 00:01:46;;;;;;;23.02;12.90;;;;;;;3.23;80.35;101132.63;5112657;28;20039;-68
2023/01/29 00:04:12;;;;;;;24.20;13.30;;;;;;;3.26;80.20;101138.63;5113931;28;20043;-68
2023/01/29 00:06:38;;;;;;;27.27;13.30;;;;;;;3.18;80.42;101124.00;5112955;28;20057;-68
2023/01/29 00:09:03;;;;;;;23.45;12.10;;;;;;;3.20;80.74;101130.09;5113289;28;20450;-68
2023/01/29 00:11:30;;;;;;;27.15;13.55;;;;;;;3.17;80.49;101133.75;5112078;28;20019;-68
2023/01/29 00:13:56;;;;;;;21.48;12.18;;;;;;;3.18;80.46;101137.25;5113795;28;20058;-68
2023/01/29 00:19:43;;;;;;;24.10;12.48;;;;;;;3.21;79.97;101137.13;5114123;28;20031;-68
2023/01/29 00:22:09;;;;;;;22.70;11.93;;;;;;;3.17;79.88;101133.75;5113024;28;20384;-68
2023/01/29 00:24:34;;;;;;;20.40;11.02;;;;;;;3.19;79.21;101141.66;5113527;28;20168;-68
2023/01/29 00:27:00;;;;;;;21.98;11.90;;;;;;;3.10;78.67;101126.16;5113278;28;20045;-68
2023/01/29 00:29:25;;;;;;;23.63;13.00;;;;;;;3.14;78.69;101141.84;5113341;28;20463;-68
2023/01/29 00:31:51;;;;;;;20.65;11.10;;;;;;;3.17;78.71;101144.38;5112935;28;20560;-68
2023/01/29 00:34:16;;;;;;;20.27;11.73;;;;;;;3.14;78.01;101135.69;5112977;28;20102;-68
2023/01/29 00:36:43;;;;;;;23.23;12.27;;;;;;;3.02;77.69;101115.00;5113466;28;20033;-68
2023/01/29 00:39:12;;;;;;;20.30;11.23;;;;;;;3.14;77.92;101138.31;5112453;28;20039;-68
2023/01/29 00:47:51;;;;;;;20.02;10.82;;;;;;;3.03;77.51;101135.31;5112183;28;20493;-68
2023/01/29 00:49:51;;;;;;;23.10;11.02;;;;;;;3.10;77.16;101142.06;5101661;28;20527;-68
2023/01/29 00:52:23;;;;;;;20.73;11.68;;;;;;;3.05;76.33;101128.13;5111300;28;20020;-68
2023/01/29 00:54:48;;;;;;;22.55;12.23;;;;;;;3.10;75.91;101139.41;5112949;28;20050;-68
2023/01/29 00:57:14;;;;;;;22.42;12.45;;;;;;;3.07;76.21;101151.00;5111339;28;20020;-67
2023/01/29 00:59:39;;;;;;;21.63;11.75;;;;;;;3.05;76.88;101149.31;5112367;28;20110;-68
2023/01/29 01:04:48;;;;;;;19.98;11.18;;;;;;;3.04;76.46;101158.22;5111854;28;20054;-68
2023/01/29 01:11:05;;;;;;;21.48;11.68;;;;;;;3.02;77.02;101160.06;5112664;28;20062;-68
2023/01/29 01:13:31;;;;;;;24.40;12.65;;;;;;;3.02;76.99;101160.06;5112036;28;20036;-68
2023/01/29 01:15:57;;;;;;;20.55;11.63;;;;;;;3.00;77.02;101165.41;5112652;28;20057;-68
2023/01/29 01:18:22;;;;;;;24.30;12.70;;;;;;;2.99;77.24;101163.72;5111787;28;20031;-68
2023/01/29 01:20:50;;;;;;;20.95;12.18;;;;;;;2.94;77.43;101162.19;5112393;28;20019;-68
2023/01/29 01:23:19;;;;;;;23.58;12.30;;;;;;;3.00;76.37;101176.03;5111955;28;20019;-68
2023/01/29 01:25:45;;;;;;;20.67;12.27;;;;;;;2.98;76.92;101175.25;5112499;28;20027;-68
2023/01/29 01:28:11;;;;;;;21.60;12.13;;;;;;;2.96;76.97;101166.50;5110850;28;20483;-68
2023/01/29 01:30:36;;;;;;;22.30;11.52;;;;;;;2.88;77.70;101165.09;5112123;28;20115;-68
2023/01/29 01:33:02;;;;;;;23.17;12.73;;;;;;;2.92;77.77;101174.63;5110191;28;20019;-68
2023/01/29 01:35:28;;;;;;;22.90;12.43;;;;;;;2.92;77.67;101171.97;5111396;28;20028;-68
2023/01/29 01:37:54;;;;;;;21.90;12.15;;;;;;;2.87;77.40;101168.69;5112328;28;20023;-68
2023/01/29 01:40:21;;;;;;;22.88;12.23;;;;;;;2.91;77.12;101172.91;5111431;28;20039;-68
2023/01/29 01:42:49;;;;;;;23.50;11.82;;;;;;;2.88;76.99;101175.69;5111967;28;20038;-68
2023/01/29 01:45:33;;;;;;;24.83;12.93;;;;;;;2.87;77.69;101171.34;5112085;28;20410;-68
2023/01/29 01:48:07;;;;;;;22.35;11.88;;;;;;;2.86;78.15;101177.53;5110844;28;20452;-68
2023/01/29 01:50:57;;;;;;;23.30;12.82;;;;;;;2.85;77.93;101181.13;5111938;27;20110;-68
2023/01/29 01:53:34;;;;;;;26.50;12.93;;;;;;;2.85;78.91;101191.72;5110652;28;20053;-68
2023/01/29 01:56:06;;;;;;;22.65;12.82;;;;;;;2.85;78.73;101189.06;5111847;28;20383;-68
2023/01/29 01:58:55;;;;;;;23.17;12.18;;;;;;;2.81;77.99;101184.84;5111974;28;20035;-68
2023/01/29 02:01:29;;;;;;;22.17;12.43;;;;;;;2.84;77.82;101193.50;5116537;28;20038;-68
2023/01/29 02:09:53;;;;;;;20.77;11.93;;;;;;;2.82;77.44;101210.38;5118230;28;20119;-68
2023/01/29 02:12:20;;;;;;;27.08;12.65;;;;;;;2.83;77.54;101217.44;5118767;27;20024;-68
2023/01/29 02:14:45;;;;;;;22.73;12.15;;;;;;;2.75;77.31;101206.28;5117335;28;20138;-68
2023/01/29 02:17:17;;;;;;;24.35;12.45;;;;;;;2.80;77.73;101221.03;5118218;27;20023;-68
2023/01/29 02:20:01;;;;;;;23.92;12.68;;;;;;;2.75;77.47;101211.56;5117726;27;20023;-68
2023/01/29 02:22:45;;;;;;;23.95;12.23;;;;;;;2.76;77.60;101219.47;5117570;28;20050;-68
2023/01/29 02:25:42;;;;;;;25.73;12.43;;;;;;;2.75;78.48;101214.22;5116450;28;20031;-68
2023/01/29 02:28:35;;;;;;;23.90;13.18;;;;;;;2.78;77.49;101222.03;5118407;27;20023;-68
2023/01/29 02:31:08;;;;;;;22.70;12.18;;;;;;;2.77;77.47;101221.16;5118370;28;20043;-68
2023/01/29 02:33:48;;;;;;;23.77;12.80;;;;;;;2.81;76.95;101227.22;5118948;27;20020;-68
2023/01/29 02:36:16;;;;;;;22.65;11.40;;;;;;;2.76;76.27;101222.09;5117460;28;20446;-68
2023/01/29 02:39:20;;;;;;;21.80;12.15;;;;;;;2.77;76.14;101230.94;5118667;28;20035;-68
2023/01/29 02:42:10;;;;;;;25.00;12.82;;;;;;;2.95;74.36;101227.50;5100720;28;20081;-68
2023/01/29 02:44:50;;;;;;;24.80;13.40;;;;;;;2.92;74.66;101222.31;5118447;27;20463;-68
2023/01/29 02:47:20;;;;;;;23.88;12.32;;;;;;;2.87;75.56;101221.66;5116415;28;20024;-68
2023/01/29 02:49:46;;;;;;;22.73;12.82;;;;;;;2.80;75.39;101214.91;5118349;27;20107;-68
2023/01/29 02:52:25;;;;;;;24.17;12.85;;;;;;;2.69;76.36;101212.69;5116184;28;20063;-68
2023/01/29 02:55:07;;;;;;;23.00;12.73;;;;;;;2.68;76.59;101215.41;5117130;27;20106;-68
2023/01/29 03:02:12;;;;;;;23.95;12.88;;;;;;;2.68;77.90;101229.53;5117277;28;20058;-68
2023/01/29 03:04:46;;;;;;;22.65;11.82;;;;;;;2.63;78.44;101228.84;5101469;28;20039;-68
2023/01/29 03:10:29;;;;;;;25.65;13.02;;;;;;;2.67;79.56;101234.88;5117976;28;20198;-68
2023/01/29 03:13:09;;;;;;;27.42;12.70;;;;;;;2.67;79.52;101240.19;5112968;27;20023;-68
2023/01/29 03:15:46;;;;;;;23.48;12.32;;;;;;;2.68;80.88;101241.88;5115079;28;20012;-68
2023/01/29 03:18:20;;;;;;;22.50;12.05;;;;;;;2.65;80.65;101242.88;5114942;28;20115;-68
2023/01/29 03:20:50;;;;;;;26.20;12.27;;;;;;;2.56;80.59;101231.78;5114501;27;20380;-68
2023/01/29 03:23:26;;;;;;;24.35;12.68;;;;;;;2.64;80.95;101241.13;5114597;28;20032;-68
2023/01/29 03:34:23;;;;;;;22.60;11.63;;;;;;;2.66;76.42;101244.59;5113492;28;20042;-67
2023/01/29 03:37:02;;;;;;;21.20;11.75;;;;;;;2.67;76.10;101248.13;5114098;28;20027;-67
2023/01/29 03:39:28;;;;;;;23.88;12.25;;;;;;;2.61;76.43;101243.91;5114380;28;20161;-67
2023/01/29 03:41:57;;;;;;;21.55;11.40;;;;;;;2.65;77.00;101252.59;5114060;28;20028;-67
2023/01/29 03:44:53;;;;;;;22.83;12.65;;;;;;;2.67;77.10;101250.78;5113507;28;20023;-67
2023/01/29 03:47:33;;;;;;;24.90;13.13;;;;;;;2.65;77.06;101253.47;5112560;28;20031;-67
2023/01/29 03:50:15;;;;;;;27.30;13.85;;;;;;;2.63;77.50;101246.50;5113771;28;20088;-67
2023/01/29 03:53:01;;;;;;;24.55;12.48;;;;;;;2.67;77.05;101248.97;5112832;28;20057;-67
2023/01/29 03:56:11;;;;;;;23.60;12.45;;;;;;;2.62;76.94;101250.06;5113696;28;20061;-67
2023/01/29 03:58:58;;;;;;;24.42;11.93;;;;;;;2.61;77.36;101251.00;5030492;28;20026;-67
2023/01/29 04:01:46;;;;;;;23.33;11.98;;;;;;;2.60;77.84;101254.56;5112527;28;20092;-67
2023/01/29 04:08:20;;;;;;;24.58;13.10;;;;;;;2.47;79.53;101255.97;5109139;28;20069;-67
2023/01/29 04:10:48;;;;;;;25.75;12.82;;;;;;;2.47;79.61;101255.97;5112702;28;20567;-67
2023/01/29 04:13:16;;;;;;;25.45;13.60;;;;;;;2.53;78.06;101261.03;5113501;28;20028;-67
2023/01/29 04:15:49;;;;;;;23.92;12.48;;;;;;;2.50;78.87;101258.50;5113551;28;20020;-67
2023/01/29 04:18:14;;;;;;;23.75;12.40;;;;;;;2.48;79.04;101268.31;5112551;28;20074;-67
2023/01/29 04:20:40;;;;;;;22.40;11.70;;;;;;;2.45;78.68;101260.50;5112630;28;20027;-67
2023/01/29 04:23:21;;;;;;;21.38;12.13;;;;;;;2.43;78.75;101256.09;5111490;28;20076;-67
2023/01/29 04:25:57;;;;;;;21.38;11.75;;;;;;;2.40;78.56;101252.72;5112498;28;20053;-67
2023/01/29 04:28:31;;;;;;;25.30;11.57;;;;;;;2.41;78.66;101256.25;5111947;28;20020;-67
2023/01/29 04:30:59;;;;;;;;;;;;;;;2.39;78.53;101251.00;5111412;28;20043;-67
2023/01/29 04:33:34;;;;;;;21.80;11.30;;;;;;;2.41;78.94;101262.38;5110928;28;20357;-67
2023/01/29 04:36:15;;;;;;;21.90;12.07;;;;;;;2.39;78.29;101257.16;5112936;28;20465;-67
2023/01/29 04:38:59;;;;;;;22.77;12.10;;;;;;;2.48;75.81;101252.44;5112886;28;20103;-67
2023/01/29 04:41:46;;;;;;;21.13;11.32;;;;;;;2.45;76.16;101261.34;5111460;28;20513;-67
2023/01/29 04:44:25;;;;;;;17.48;9.68;;;;;;;2.42;76.43;101253.53;5112355;28;20034;-67
2023/01/29 04:46:57;;;;;;;23.98;11.10;;;;;;;2.45;76.56;101266.63;5110578;28;20067;-66
2023/01/29 04:49:35;;;;;;;18.27;10.75;;;;;;;2.50;75.66;101266.44;5111904;28;20035;-67
2023/01/29 04:52:18;;;;;;;20.02;10.70;;;;;;;2.45;75.91;101265.78;5111729;28;20047;-67
2023/01/29 04:54:50;;;;;;;20.13;11.20;;;;;;;2.45;76.04;101261.34;5113015;28;20027;-67
2023/01/29 04:57:26;;;;;;;22.70;11.65;;;;;;;2.49;77.07;101272.69;5111160;28;20050;-66
2023/01/29 04:59:56;;;;;;;25.08;12.82;;;;;;;2.41;76.87;101250.97;5112566;28;20571;-67
2023/01/29 05:02:25;;;;;;;23.42;13.00;;;;;;;2.43;76.92;101271.97;5111100;28;20046;-67
2023/01/29 05:04:53;;;;;;;24.77;12.65;;;;;;;2.47;76.69;101272.72;5112469;28;20030;-67
2023/01/29 05:07:21;;;;;;;21.17;11.88;;;;;;;2.46;76.54;101272.78;5111140;28;20036;-67
2023/01/29 05:09:48;;;;;;;24.33;12.77;;;;;;;2.48;76.64;101273.59;5110784;28;20027;-67
2023/01/29 05:12:16;;;;;;;22.77;12.40;;;;;;;2.46;76.94;101276.31;5112173;28;20076;-67
2023/01/29 05:14:44;;;;;;;26.40;12.73;;;;;;;2.40;77.33;101263.31;5111458;28;20481;-66
2023/01/29 05:17:17;;;;;;;30.00;13.32;;;;;;;2.46;77.35;101283.38;5111855;28;20035;-67
2023/01/29 05:19:43;;;;;;;24.10;11.43;;;;;;;2.45;77.33;101273.72;5112810;28;20027;-67
2023/01/29 05:22:11;;;;;;;20.73;11.63;;;;;;;2.39;76.99;101267.75;5112280;28;20677;-67
2023/01/29 05:24:37;;;;;;;21.55;11.43;;;;;;;2.42;76.74;101271.19;5111792;28;20111;-67
2023/01/29 05:29:47;;;;;;;;;;;;;;;2.48;74.92;101286.84;5113014;28;20034;-67
2023/01/29 05:32:13;;;;;;;22.55;9.90;;;;;;;2.48;74.79;101278.91;5111693;28;19912;-67
2023/01/29 05:34:38;;;;;;;19.70;10.15;;;;;;;2.45;74.81;101284.31;5111505;28;20064;-67
2023/01/29 05:37:04;;;;;;;21.17;10.35;;;;;;;2.49;74.51;101288.56;5112083;28;20023;-67
2023/01/29 05:39:29;;;;;;;19.75;10.93;;;;;;;2.50;74.85;101292.94;5112243;28;20077;-67
2023/01/29 05:41:54;;;;;;;22.15;11.55;;;;;;;2.43;75.01;101284.38;5110603;28;20035;-67
2023/01/29 05:44:20;;;;;;;21.00;10.70;;;;;;;2.45;75.17;101293.09;5110583;28;20047;-67
2023/01/29 05:46:45;;;;;;;20.08;10.48;;;;;;;2.42;75.33;101287.09;5111129;28;20452;-67
2023/01/29 05:49:11;;;;;;;21.17;10.88;;;;;;;2.41;76.19;101286.22;5111571;28;20574;-67
2023/01/29 05:51:37;;;;;;;21.50;11.40;;;;;;;2.41;75.96;101274.78;5111951;28;20090;-67
2023/01/29 05:54:02;;;;;;;21.10;11.13;;;;;;;2.52;74.63;101291.97;5111617;28;20024;-67
2023/01/29 05:56:28;;;;;;;20.77;10.82;;;;;;;2.47;74.31;101275.38;5111498;28;20100;-67
2023/01/29 05:58:54;;;;;;;22.27;11.27;;;;;;;2.42;75.32;101272.06;5110568;28;20233;-67
2023/01/29 06:01:22;;;;;;;24.25;12.23;;;;;;;2.42;76.11;101271.19;5110590;28;20494;-67
2023/01/29 06:03:48;;;;;;;20.70;11.55;;;;;;;2.45;76.74;101292.25;5110106;28;20532;-67
2023/01/29 06:06:14;;;;;;;22.50;11.63;;;;;;;2.39;77.59;101283.63;5111189;28;20099;-67
2023/01/29 06:08:40;;;;;;;18.70;10.70;;;;;;;2.43;76.59;101279.94;5110514;28;20035;-67
2023/01/29 06:11:11;;;;;;;25.00;12.45;;;;;;;2.48;75.98;101292.97;5110171;28;20032;-67
2023/01/29 06:13:37;;;;;;;20.65;11.75;;;;;;;2.43;76.14;101285.22;5109764;28;20095;-67
2023/01/29 06:16:09;;;;;;;21.98;12.50;;;;;;;2.45;76.63;101292.25;5110690;28;20016;-67
2023/01/29 06:18:35;;;;;;;30.65;14.23;;;;;;;2.50;76.24;101279.69;5109355;28;20028;-67
2023/01/29 06:21:02;;;;;;;31.05;15.35;;;;;;;2.55;77.59;101277.72;5111434;28;20016;-67
2023/01/29 06:23:28;;;;;;;29.30;15.68;;;;;;;2.61;78.29;101282.78;5111062;28;20028;-67
2023/01/29 06:25:58;;;;;;;33.85;16.85;;;;;;;2.48;79.24;101276.25;5110931;28;20039;-67
2023/01/29 06:28:24;;;;;;;34.83;16.48;;;;;;;2.45;80.56;101285.16;5111172;28;20039;-67
2023/01/29 06:30:49;;;;;;;36.00;18.02;;;;;;;2.47;81.23;101285.09;5109487;28;20035;-67
2023/01/29 06:33:15;;;;;;;39.05;20.80;;;;;;;2.32;82.54;101257.44;5109924;28;20441;-67
2023/01/29 06:35:40;;;;;;;45.20;21.80;;;;;;;2.42;83.49;101288.78;5111257;28;20023;-68
2023/01/29 06:38:06;;;;;;;40.40;20.40;;;;;;;2.41;84.44;101283.56;5110744;28;20016;-67
2023/01/29 06:40:31;;;;;;;41.20;22.08;;;;;;;2.37;85.45;101295.19;5111088;28;20019;-67
2023/01/29 06:42:59;;;;;;;44.58;21.73;;;;;;;2.34;85.92;101295.31;5110087;28;20019;-66
2023/01/29 06:45:24;;;;;;;51.75;24.05;;;;;;;2.39;87.18;101288.06;5110939;28;20024;-67
2023/01/29 06:47:50;;;;;;;49.80;24.02;;;;;;;2.40;87.46;101279.19;5114166;28;20089;-67
2023/01/29 06:50:15;;;;;;;45.97;24.10;;;;;;;2.38;88.10;101291.63;5113762;27;20032;-67
2023/01/29 06:52:41;;;;;;;54.70;26.23;;;;;;;2.35;89.41;101289.97;5115058;28;20015;-66
2023/01/29 06:55:07;;;;;;;52.83;26.00;;;;;;;2.38;89.86;101302.22;5114846;28;20077;-67
2023/01/29 06:57:32;;;;;;;52.45;27.42;;;;;;;2.42;90.92;101304.69;5115012;28;20035;-67
2023/01/29 06:59:58;;;;;;;59.42;27.50;;;;;;;2.48;91.05;101314.16;5113985;28;20024;-67
2023/01/29 07:02:23;;;;;;;60.50;29.42;;;;;;;2.41;91.61;101301.25;5114084;28;20028;-67
2023/01/29 07:04:49;;;;;;;60.38;30.45;;;;;;;2.46;92.41;101323.97;5114071;28;20023;-67
2023/01/29 07:07:14;;;;;;;59.17;30.02;;;;;;;2.66;91.37;101318.75;5114150;28;20126;-67
2023/01/29 07:09:40;;;;;;;61.80;30.23;;;;;;;2.49;91.58;101312.38;5112288;28;20027;-67
2023/01/29 07:12:07;;;;;;;62.03;31.58;;;;;;;2.56;91.97;101332.41;5114675;28;20030;-67
2023/01/29 07:14:32;;;;;;;64.43;31.17;;;;;;;2.47;92.74;101333.63;5114366;28;20491;-67
2023/01/29 07:16:58;;;;;;;65.18;30.95;;;;;;;2.62;92.82;101324.22;5113995;28;20020;-67
2023/01/29 07:19:23;;;;;;;66.00;32.35;;;;;;;2.65;92.37;101329.41;5114360;28;20471;-68
2023/01/29 07:21:49;;;;;;;67.75;31.77;;;;;;;2.62;92.88;101333.03;5114616;28;20352;-68
2023/01/29 07:24:15;;;;;;;68.72;34.33;;;;;;;2.65;93.03;101321.47;5112412;28;20123;-67
2023/01/29 07:30:28;;;;;;;61.05;29.20;;;;;;;2.53;94.74;101330.75;5113616;28;20042;-68
2023/01/29 07:32:54;;;;;;;61.35;31.30;;;;;;;2.53;95.85;101341.34;5113878;28;20032;-67
2023/01/29 07:35:19;;;;;;;67.22;33.72;;;;;;;2.66;95.05;101334.63;5113902;28;20016;-68
2023/01/29 07:37:48;;;;;;;65.65;31.58;;;;;;;2.60;95.32;101331.34;5112757;28;20028;-67
2023/01/29 07:40:14;;;;;;;66.13;33.85;;;;;;;2.69;94.15;101331.00;5112885;28;20023;-67
2023/01/29 07:42:41;;;;;;;70.93;34.00;;;;;;;2.61;94.73;101335.75;5113920;28;20024;-68
2023/01/29 07:45:07;;;;;;;74.80;34.25;;;;;;;2.60;95.73;101339.28;5111525;28;20047;-67
2023/01/29 07:47:33;;;;;;;67.53;34.00;;;;;;;2.41;96.20;101333.84;5113937;28;20076;-68
2023/01/29 07:49:59;;;;;;;69.63;33.55;;;;;;;2.51;96.32;101340.53;5113320;28;20043;-67
2023/01/29 07:52:25;;;;;;;71.30;33.80;;;;;;;2.50;95.65;101341.47;5113273;28;20077;-67
2023/01/29 07:54:50;;;;;;;74.85;34.33;;;;;;;2.43;96.35;101332.03;5113146;28;20512;-67
2023/01/29 07:57:15;;;;;;;70.55;32.78;;;;;;;2.46;95.27;101328.38;5112737;28;20028;-67
2023/01/29 07:59:41;;;;;;;69.47;33.78;;;;;;;2.52;94.79;101325.50;5111492;28;20027;-67
2023/01/29 08:02:08;;;;;;;73.07;33.78;;;;;;;2.51;95.59;101334.38;5113208;28;20035;-68
2023/01/29 08:04:34;;;;;;;73.75;34.70;;;;;;;2.48;94.79;101323.91;5113722;28;20030;-68
2023/01/29 08:06:59;;;;;;;75.25;34.42;;;;;;;2.48;95.14;101323.91;5112840;28;20617;-67
2023/01/29 08:09:24;;;;;;;73.78;33.90;;;;;;;2.37;96.05;101319.03;5112672;28;20054;-67
2023/01/29 08:11:50;;;;;;;73.95;34.78;;;;;;;2.29;97.32;101310.53;5112539;28;20069;-68
2023/01/29 08:14:15;;;;;;;69.38;33.60;;;;;;;2.25;97.38;101306.25;5113525;28;20119;-67
2023/01/29 08:16:41;;;;;;;76.88;33.20;;;;;;;2.26;97.50;101303.53;5113464;28;20024;-67
2023/01/29 08:22:28;;;;;;;70.32;32.65;;;;;;;2.38;95.14;101303.09;5112960;28;20035;-68
2023/01/29 08:24:53;;;;;;;75.07;34.63;;;;;;;2.50;95.43;101324.69;5110850;28;20364;-68
2023/01/29 08:30:40;;;;;;;67.22;31.00;;;;;;;2.42;94.99;101324.16;5113330;28;20462;-67
2023/01/29 08:33:06;;;;;;;67.07;32.50;;;;;;;2.39;95.27;101318.03;5112611;28;20035;-68
2023/01/29 08:35:31;;;;;;;66.13;32.30;;;;;;;2.39;95.08;101325.97;5113099;28;20015;-68
2023/01/29 08:38:02;;;;;;;70.40;32.75;;;;;;;2.51;94.25;101331.75;5113602;28;20454;-68
2023/01/29 08:40:32;;;;;;;71.13;32.80;;;;;;;2.42;94.18;101324.16;5111014;28;20036;-68
2023/01/29 08:42:59;;;;;;;73.32;32.30;;;;;;;2.46;94.42;101337.22;5112700;28;20116;-67
2023/01/29 08:45:24;;;;;;;66.80;31.60;;;;;;;2.36;94.86;101326.09;5112841;28;20043;-68
2023/01/29 08:47:50;;;;;;;68.70;31.85;;;;;;;2.57;93.21;101318.25;5111983;28;20016;-68
2023/01/29 08:50:16;;;;;;;62.97;28.95;;;;;;;2.59;92.38;101322.56;5112870;28;20118;-68
2023/01/29 08:52:42;;;;;;;66.05;32.28;;;;;;;2.58;92.56;101327.91;5112227;28;20026;-67
2023/01/29 08:55:08;;;;;;;63.08;29.75;;;;;;;2.48;93.59;101331.84;5111697;28;20456;-68
2023/01/29 08:57:34;;;;;;;61.97;30.95;;;;;;;2.35;93.68;101323.50;5112564;28;20030;-67
2023/01/29 08:59:59;;;;;;;63.10;29.75;;;;;;;2.29;94.88;101315.81;5113037;28;20035;-68
2023/01/29 09:02:25;;;;;;;67.88;31.40;;;;;;;2.48;94.07;101329.22;5113099;28;20032;-67
2023/01/29 09:04:50;;;;;;;63.55;30.92;;;;;;;2.41;93.95;101322.44;5112032;28;20059;-68
2023/01/29 09:07:15;;;;;;;64.10;31.33;;;;;;;2.47;94.29;101330.09;5112547;28;20043;-68
2023/01/29 09:09:41;;;;;;;63.05;30.02;;;;;;;2.54;93.82;101343.06;5111840;28;20023;-68
2023/01/29 09:12:07;;;;;;;60.90;29.55;;;;;;;2.59;91.17;101332.28;5110594;28;20451;-68
2023/01/29 09:14:32;;;;;;;59.40;28.13;;;;;;;2.68;89.76;101339.88;5112464;28;20055;-68
2023/01/29 09:16:58;;;;;;;56.05;28.42;;;;;;;2.66;89.82;101344.34;5110918;28;20011;-67
2023/01/29 09:19:23;;;;;;;60.85;30.45;;;;;;;2.67;90.92;101354.88;5111797;28;20023;-68
2023/01/29 09:21:48;;;;;;;59.08;29.52;;;;;;;2.69;90.07;101347.75;5111396;28;20023;-68
2023/01/29 09:24:14;;;;;;;58.85;30.13;;;;;;;2.83;87.85;101349.88;5112526;28;20143;-67
2023/01/29 09:26:40;;;;;;;54.90;27.02;;;;;;;2.84;88.55;101359.53;5112686;28;20050;-68
2023/01/29 09:29:05;;;;;;;55.97;27.13;;;;;;;2.97;85.02;101350.19;5109688;28;20024;-67
2023/01/29 09:31:32;;;;;;;55.60;27.88;;;;;;;3.02;83.50;101359.66;5112155;28;20039;-68
2023/01/29 09:33:57;;;;;;;55.30;27.52;;;;;;;3.04;83.54;101362.25;5109747;28;20023;-68
2023/01/29 09:36:23;;;;;;;50.97;26.35;;;;;;;3.13;81.88;101359.22;5112027;28;20375;-67
2023/01/29 09:38:48;;;;;;;50.88;25.65;;;;;;;2.91;83.42;101356.59;5111399;28;20026;-68
2023/01/29 09:41:41;;;;;;;59.65;28.80;;;;;;;2.95;84.75;101357.31;5110433;27;20027;-68
2023/01/29 09:44:16;;;;;;;57.08;28.83;;;;;;;3.06;84.55;101355.13;5110032;28;20596;-67
2023/01/29 09:46:47;;;;;;;53.65;26.75;;;;;;;3.18;83.14;101358.13;5110945;28;20052;-68
2023/01/29 09:49:13;;;;;;;55.00;27.00;;;;;;;3.20;82.66;101353.63;5110799;28;20074;-68
2023/01/29 09:55:03;;;;;;;50.60;25.77;;;;;;;3.05;83.72;101348.94;5109331;28;20380;-67
2023/01/29 09:57:44;;;;;;;56.22;25.25;;;;;;;3.15;82.25;101355.59;5110936;28;20031;-67
2023/01/29 10:03:51;;;;;;;51.35;25.95;;;;;;;3.08;83.67;101353.25;5109834;28;20101;-67
2023/01/29 10:06:54;;;;;;;52.95;26.45;;;;;;;3.20;82.58;101344.78;5108743;28;20446;-67
2023/01/29 10:13:06;;;;;;;53.60;26.25;;;;;;;3.18;80.92;101352.81;5110223;28;20085;-68
2023/01/29 10:19:21;;;;;;;54.72;27.10;;;;;;;3.08;82.99;101364.72;5110738;28;20494;-67
2023/01/29 10:22:00;;;;;;;55.90;28.33;;;;;;;3.05;83.61;101363.97;5109563;28;20595;-67
2023/01/29 10:24:42;;;;;;;62.22;28.90;;;;;;;3.16;82.13;101345.84;5114016;28;20476;-67
2023/01/29 10:27:16;;;;;;;51.45;25.58;;;;;;;3.29;81.98;101350.56;5113301;28;20027;-67
2023/01/29 10:33:53;;;;;;;45.80;21.50;;;;;;;3.18;82.73;101355.47;5113826;28;20062;-67
2023/01/29 10:39:40;;;;;;;42.33;21.83;;;;;;;3.17;85.42;101360.81;5113350;28;20105;-67
2023/01/29 10:42:21;;;;;;;42.55;21.02;;;;;;;3.21;86.17;101359.75;5112229;28;20020;-67
2023/01/29 10:45:11;;;;;;;46.80;23.40;;;;;;;3.14;87.23;101360.94;5112414;28;20091;-67
2023/01/29 10:50:58;;;;;;;42.85;20.73;;;;;;;2.94;90.79;101353.81;5113124;28;20054;-67
2023/01/29 10:53:58;;;;;;;44.72;22.02;;;;;;;3.00;92.48;101358.84;5111315;28;20024;-68
2023/01/29 10:56:41;;;;;;;41.78;21.05;;;;;;;3.11;91.11;101354.00;5112341;28;20020;-69
2023/01/29 11:03:17;;;;;;;46.35;22.23;;;;;;;2.86;92.69;101320.59;5113886;28;20122;-67
2023/01/29 11:05:55;;;;;;;45.45;22.73;;;;;;;2.88;93.68;101330.22;5113023;28;20480;-68
2023/01/29 11:11:51;;;;;;;47.78;23.02;;;;;;;2.79;95.36;101319.13;5113256;28;20034;-69
2023/01/29 11:14:45;;;;;;;45.88;22.63;;;;;;;3.04;93.24;101330.44;5113593;28;20031;-68
2023/01/29 11:17:18;;;;;;;46.97;23.55;;;;;;;2.99;91.97;101327.97;5105016;28;20038;-68
2023/01/29 11:19:47;;;;;;;64.50;29.83;;;;;;;2.99;92.78;101324.47;5113613;28;20032;-67
2023/01/29 11:22:19;;;;;;;54.85;27.95;;;;;;;2.92;93.32;101315.03;5112084;28;20114;-68
2023/01/29 11:28:09;;;;;;;49.10;24.60;;;;;;;2.84;93.34;101290.66;5112521;28;20108;-67
2023/01/29 11:30:38;;;;;;;49.05;24.83;;;;;;;2.97;92.34;101308.63;5113266;28;20034;-68
2023/01/29 11:33:03;;;;;;;60.10;28.00;;;;;;;3.00;90.76;101294.41;5109694;28;20065;-69
2023/01/29 11:35:31;;;;;;;50.83;25.42;;;;;;;3.05;90.48;101290.63;5110661;28;20484;-67
2023/01/29 11:38:17;;;;;;;46.75;23.80;;;;;;;3.18;88.91;101293.63;5112533;28;20031;-68
2023/01/29 11:40:43;;;;;;;47.72;23.20;;;;;;;3.18;88.22;101286.56;5113196;28;20092;-68
2023/01/29 11:43:31;;;;;;;43.83;22.33;;;;;;;3.08;88.85;101279.03;5110899;28;20495;-68
2023/01/29 11:46:12;;;;;;;47.88;24.27;;;;;;;3.21;88.06;101275.81;5111659;28;20030;-68
2023/01/29 11:48:49;;;;;;;49.92;25.40;;;;;;;3.13;87.75;101271.78;5111479;28;20571;-68
2023/01/29 11:51:24;;;;;;;49.47;23.52;;;;;;;3.10;88.69;101274.56;5111721;28;20024;-68
2023/01/29 11:53:53;;;;;;;47.30;23.10;;;;;;;3.07;89.15;101274.69;5112111;28;20028;-68
2023/01/29 11:56:20;;;;;;;48.13;22.20;;;;;;;3.03;89.50;101258.03;5112247;28;20019;-68
2023/01/29 11:58:48;;;;;;;43.00;22.27;;;;;;;3.16;88.60;101269.00;5113440;28;20077;-68
2023/01/29 12:01:22;;;;;;;46.30;22.95;;;;;;;3.35;87.10;101262.81;5111901;28;20032;-68
2023/01/29 12:03:52;;;;;;;47.60;23.85;;;;;;;3.29;87.06;101264.91;5112959;28;20368;-68
2023/01/29 12:06:32;;;;;;;48.00;24.63;;;;;;;3.27;86.44;101258.78;5112745;28;20414;-68
2023/01/29 12:09:01;;;;;;;46.72;23.70;;;;;;;3.25;86.85;101271.22;5113336;28;20085;-68
2023/01/29 12:11:32;;;;;;;47.05;24.05;;;;;;;3.04;87.91;101250.94;5113273;28;20038;-68
2023/01/29 12:14:21;;;;;;;43.38;22.05;;;;;;;3.06;88.55;101270.31;5113109;28;20031;-68
2023/01/29 12:16:52;;;;;;;45.10;22.55;;;;;;;2.94;89.65;101273.47;5113194;28;20035;-68
2023/01/29 12:19:45;;;;;;;42.80;21.83;;;;;;;3.06;86.19;101254.41;5112154;28;20059;-68
2023/01/29 12:22:23;;;;;;;37.15;19.92;;;;;;;3.11;85.42;101271.84;5112315;28;20495;-68
2023/01/29 12:24:57;;;;;;;37.47;19.25;;;;;;;3.15;83.21;101261.94;5111591;28;20483;-68
2023/01/29 12:27:34;;;;;;;32.78;17.98;;;;;;;3.16;81.02;101245.16;5112208;28;20470;-68
2023/01/29 12:30:09;;;;;;;29.45;16.77;;;;;;;3.10;81.61;101240.97;5110885;28;20027;-69
2023/01/29 12:32:48;;;;;;;32.25;16.85;;;;;;;2.97;82.57;101238.91;5112471;28;20504;-68
2023/01/29 12:35:39;;;;;;;29.10;16.85;;;;;;;2.92;81.40;101231.13;5112194;28;20069;-68
2023/01/29 12:38:10;;;;;;;31.15;16.55;;;;;;;2.79;82.38;101229.94;5111691;28;20038;-68
2023/01/29 12:40:55;;;;;;;61.00;28.10;;;;;;;2.91;80.67;101228.56;5109923;28;20067;-68
2023/01/29 12:43:43;;;;;;;32.38;16.33;;;;;;;2.81;80.63;101206.91;5111918;28;20080;-68
2023/01/29 12:46:21;;;;;;;33.80;16.80;;;;;;;2.94;80.19;101223.13;5111479;28;20023;-68
2023/01/29 12:48:48;;;;;;;27.67;14.32;;;;;;;2.81;81.56;101230.75;5109225;28;20054;-68
2023/01/29 12:51:30;;;;;;;32.03;15.18;;;;;;;2.96;80.00;101227.44;5111103;28;20031;-68
2023/01/29 12:54:04;;;;;;;25.23;14.80;;;;;;;2.96;78.69;101208.88;5110362;28;20036;-68
2023/01/29 12:56:39;;;;;;;30.20;15.07;;;;;;;3.06;78.76;101222.63;5109287;28;20023;-68
2023/01/29 12:59:44;;;;;;;29.83;15.25;;;;;;;2.92;79.11;101219.66;5110324;28;20102;-68
2023/01/29 13:02:24;;;;;;;26.45;14.10;;;;;;;2.84;78.88;101222.63;5107763;28;20032;-68
2023/01/29 13:05:16;;;;;;;27.98;14.35;;;;;;;2.94;78.27;101229.31;5109767;28;20045;-68
2023/01/29 13:07:48;;;;;;;28.40;13.98;;;;;;;2.91;78.87;101223.25;5095633;28;21439;-68